createdAt,value
2023-05-22T00:01:52.487Z,99961.09
2023-05-22T00:04:59.542Z,99960.94
2023-05-22T00:08:06.265Z,99966.63
2023-05-22T00:11:10.344Z,99965.19
2023-05-22T00:14:15.024Z,99962.81
2023-05-22T00:17:19.317Z,99966.75
2023-05-22T00:20:24.136Z,99965.28
2023-05-22T00:23:29.183Z,99964.94
2023-05-22T00:26:33.293Z,99980.94
2023-05-22T00:29:37.302Z,99982.25
2023-05-22T00:32:41.887Z,99986.28
2023-05-22T00:35:46.349Z,99987.84
2023-05-22T00:38:50.824Z,99991.84
2023-05-22T00:41:54.879Z,99991.38
2023-05-22T00:44:59.205Z,99997.88
2023-05-22T00:48:03.768Z,99995.94
2023-05-22T00:51:09.358Z,99964.78
2023-05-22T00:54:14.835Z,99973.63
2023-05-22T00:57:20.183Z,99998.09
2023-05-22T01:00:25.036Z,100001.16
2023-05-22T01:03:29.355Z,100006.59
2023-05-22T01:06:34.185Z,99987.78
2023-05-22T01:09:38.377Z,99988.19
2023-05-22T01:13:02.863Z,100013.22
2023-05-22T01:17:00.938Z,100007.72
2023-05-22T01:20:30.073Z,100012.53
2023-05-22T01:24:12.822Z,100012.28
2023-05-22T01:27:36.037Z,100008.13
2023-05-22T01:30:55.318Z,100010.06
2023-05-22T01:34:02.326Z,99977.50
2023-05-22T01:37:07.014Z,100007.31
2023-05-22T01:40:13.050Z,99972.78
2023-05-22T01:43:17.619Z,100005.00
2023-05-22T01:46:22.403Z,99992.25
2023-05-22T01:49:27.253Z,99981.44
2023-05-22T01:52:42.629Z,100006.06
2023-05-22T01:56:08.525Z,100007.78
2023-05-22T01:59:31.767Z,100009.56
2023-05-22T02:02:39.217Z,100005.41
2023-05-22T02:05:45.722Z,100010.81
2023-05-22T02:08:50.198Z,99998.41
2023-05-22T02:11:54.619Z,99997.13
2023-05-22T02:14:59.233Z,100000.75
2023-05-22T02:18:04.742Z,100004.94
2023-05-22T02:21:11.937Z,99996.28
2023-05-22T02:24:16.063Z,100009.59
2023-05-22T02:27:23.359Z,100011.41
2023-05-22T02:30:27.519Z,100000.38
2023-05-22T02:33:32.748Z,99987.34
2023-05-22T02:36:38.197Z,100000.66
2023-05-22T02:39:42.368Z,100013.66
2023-05-22T02:42:46.475Z,100014.44
2023-05-22T02:45:50.693Z,100003.97
2023-05-22T02:48:54.703Z,100021.81
2023-05-22T02:51:58.737Z,100031.06
2023-05-22T02:55:03.028Z,100004.31
2023-05-22T02:58:12.081Z,100016.25
2023-05-22T03:01:16.601Z,99999.63
2023-05-22T03:04:21.233Z,100040.78
2023-05-22T03:07:27.215Z,100011.00
2023-05-22T03:10:31.559Z,99991.22
2023-05-22T03:13:35.704Z,100038.00
2023-05-22T03:16:40.366Z,100008.06
2023-05-22T03:19:45.027Z,100033.72
2023-05-22T03:22:49.222Z,99995.31
2023-05-22T03:25:54.891Z,100013.25
2023-05-22T03:29:02.968Z,100027.44
2023-05-22T03:32:07.660Z,100016.81
2023-05-22T03:35:12.082Z,100036.97
2023-05-22T03:38:16.518Z,100026.16
2023-05-22T03:41:20.998Z,100045.91
2023-05-22T03:44:25.595Z,100039.47
2023-05-22T03:47:30.970Z,100064.41
2023-05-22T03:50:34.927Z,100050.38
2023-05-22T03:53:39.518Z,100038.44
2023-05-22T03:56:44.874Z,100059.44
2023-05-22T03:59:48.783Z,100081.31
2023-05-22T04:02:53.362Z,100029.53
2023-05-22T04:06:00.470Z,100048.22
2023-05-22T04:09:05.260Z,100072.59
2023-05-22T04:12:12.140Z,100045.47
2023-05-22T04:15:16.403Z,100087.31
2023-05-22T04:18:20.528Z,100084.31
2023-05-22T04:21:25.396Z,100036.00
2023-05-22T04:24:29.339Z,100079.69
2023-05-22T04:27:36.289Z,100093.50
2023-05-22T04:30:41.181Z,100057.31
2023-05-22T04:33:50.634Z,100087.75
2023-05-22T04:36:57.088Z,100033.78
2023-05-22T04:40:08.412Z,100098.69
2023-05-22T04:43:13.463Z,100072.31
2023-05-22T04:46:17.720Z,100013.97
2023-05-22T04:49:21.890Z,100053.97
2023-05-22T04:52:26.969Z,100082.66
2023-05-22T04:55:34.690Z,100070.34
2023-05-22T04:58:39.386Z,100085.84
2023-05-22T05:01:49.133Z,100080.94
2023-05-22T05:04:54.033Z,100046.44
2023-05-22T05:07:58.501Z,100084.06
2023-05-22T05:11:02.849Z,100063.03
2023-05-22T05:14:07.062Z,100082.63
2023-05-22T05:17:11.167Z,100095.53
2023-05-22T05:20:18.317Z,100090.31
2023-05-22T05:23:23.263Z,100101.06
2023-05-22T05:26:28.115Z,100090.91
2023-05-22T05:29:32.197Z,100090.03
2023-05-22T05:32:41.827Z,100094.50
2023-05-22T05:35:56.979Z,100089.72
2023-05-22T05:39:02.346Z,100055.78
2023-05-22T05:42:10.159Z,100068.19
2023-05-22T05:45:16.764Z,100091.56
2023-05-22T05:48:21.100Z,100035.41
2023-05-22T05:51:25.917Z,100066.84
2023-05-22T05:54:30.515Z,100078.28
2023-05-22T05:57:39.372Z,100089.44
2023-05-22T06:00:46.654Z,100083.03
2023-05-22T06:03:51.168Z,100074.53
2023-05-22T06:07:02.728Z,100083.72
2023-05-22T06:10:21.545Z,100095.69
2023-05-22T06:13:34.945Z,100024.38
2023-05-22T06:16:59.176Z,100071.53
2023-05-22T06:20:03.725Z,100068.72
2023-05-22T06:23:08.403Z,100095.22
2023-05-22T06:26:13.091Z,100068.88
2023-05-22T06:29:18.543Z,100086.09
2023-05-22T06:32:24.327Z,100092.00
2023-05-22T06:35:30.350Z,100087.03
2023-05-22T06:38:35.054Z,100095.09
2023-05-22T06:41:38.956Z,100083.22
2023-05-22T06:44:45.557Z,100108.41
2023-05-22T06:47:55.031Z,100070.72
2023-05-22T06:50:59.799Z,100037.66
2023-05-22T06:54:07.506Z,100091.16
2023-05-22T06:57:13.301Z,100093.13
2023-05-22T07:00:22.072Z,100073.47
2023-05-22T07:03:39.715Z,100045.16
2023-05-22T07:07:01.974Z,100072.28
2023-05-22T07:10:06.636Z,100099.34
2023-05-22T07:13:10.800Z,100060.84
2023-05-22T07:16:16.184Z,100091.19
2023-05-22T07:19:20.696Z,100095.47
2023-05-22T07:22:24.793Z,100076.81
2023-05-22T07:25:29.892Z,100044.22
2023-05-22T07:28:34.501Z,100097.41
2023-05-22T07:31:48.787Z,100052.75
2023-05-22T07:34:54.101Z,100090.69
2023-05-22T07:37:58.494Z,100076.53
2023-05-22T07:41:05.578Z,100047.16
2023-05-22T07:44:11.157Z,100061.00
2023-05-22T07:47:15.324Z,100047.38
2023-05-22T07:50:20.078Z,100047.59
2023-05-22T07:53:24.980Z,100077.22
2023-05-22T07:56:33.456Z,100047.47
2023-05-22T07:59:38.290Z,99985.47
2023-05-22T08:02:42.756Z,100076.03
2023-05-22T08:05:47.290Z,100057.06
2023-05-22T08:08:53.915Z,100050.25
2023-05-22T08:11:57.921Z,100070.47
2023-05-22T08:15:01.700Z,100057.16
2023-05-22T08:18:09.065Z,100051.50
2023-05-22T08:21:13.272Z,100057.75
2023-05-22T08:24:17.330Z,100028.69
2023-05-22T08:27:21.446Z,100055.25
2023-05-22T08:30:25.598Z,100083.03
2023-05-22T08:33:29.544Z,100072.59
2023-05-22T08:36:34.868Z,100069.81
2023-05-22T08:39:38.869Z,100068.56
2023-05-22T08:42:44.009Z,100061.56
2023-05-22T08:45:56.890Z,100068.97
2023-05-22T08:49:02.683Z,100029.47
2023-05-22T08:52:27.034Z,100042.09
2023-05-22T08:55:32.260Z,100073.75
2023-05-22T08:58:38.526Z,100061.78
2023-05-22T09:01:43.018Z,100041.34
2023-05-22T09:04:47.627Z,100064.72
2023-05-22T09:07:51.805Z,100050.25
2023-05-22T09:10:57.234Z,100033.56
2023-05-22T09:14:11.010Z,100068.72
2023-05-22T09:17:18.510Z,100064.03
2023-05-22T09:20:22.797Z,100047.94
2023-05-22T09:23:29.605Z,100055.75
2023-05-22T09:26:34.422Z,100057.16
2023-05-22T09:30:00.806Z,100004.00
2023-05-22T09:33:12.611Z,100055.00
2023-05-22T09:36:17.860Z,100072.84
2023-05-22T09:39:24.545Z,100070.38
2023-05-22T09:42:29.393Z,100082.25
2023-05-22T09:45:37.031Z,100071.22
2023-05-22T09:48:41.242Z,100088.69
2023-05-22T09:51:50.306Z,100109.84
2023-05-22T09:54:57.464Z,100111.16
2023-05-22T09:58:06.230Z,100111.28
2023-05-22T10:01:14.944Z,100105.56
2023-05-22T10:04:20.122Z,100102.78
2023-05-22T10:07:27.981Z,100121.38
2023-05-22T10:10:33.135Z,100123.50
2023-05-22T10:13:38.422Z,100117.06
2023-05-22T10:16:46.148Z,100133.41
2023-05-22T10:19:51.507Z,100134.00
2023-05-22T10:22:56.915Z,100124.72
2023-05-22T10:26:01.013Z,100130.69
2023-05-22T10:29:15.926Z,100116.09
2023-05-22T10:32:31.812Z,100136.66
2023-05-22T10:35:57.516Z,100132.13
2023-05-22T10:39:35.203Z,100138.41
2023-05-22T10:42:39.747Z,100129.97
2023-05-22T10:45:47.636Z,100135.34
2023-05-22T10:48:54.178Z,100132.91
2023-05-22T10:51:58.548Z,100137.25
2023-05-22T10:55:07.046Z,100153.91
2023-05-22T10:58:33.178Z,100120.38
2023-05-22T11:01:38.822Z,100155.19
2023-05-22T11:04:51.447Z,100135.03
2023-05-22T11:08:31.180Z,100158.84
2023-05-22T11:11:35.077Z,100161.78
2023-05-22T11:14:39.403Z,100166.84
2023-05-22T11:17:54.155Z,100178.06
2023-05-22T11:21:01.271Z,100158.44
2023-05-22T11:24:10.325Z,100182.41
2023-05-22T11:27:14.899Z,100181.16
2023-05-22T11:30:19.264Z,100168.56
2023-05-22T11:33:25.005Z,100192.91
2023-05-22T11:36:29.843Z,100194.19
2023-05-22T11:39:34.112Z,100193.19
2023-05-22T11:42:39.413Z,100170.03
2023-05-22T11:45:43.528Z,100193.38
2023-05-22T11:48:49.117Z,100185.03
2023-05-22T11:51:52.910Z,100211.41
2023-05-22T11:54:59.393Z,100204.53
2023-05-22T11:58:05.591Z,100193.19
2023-05-22T12:01:09.617Z,100172.91
2023-05-22T12:04:13.883Z,100182.44
2023-05-22T12:07:18.209Z,100207.88
2023-05-22T12:10:22.223Z,100212.13
2023-05-22T12:13:30.259Z,100202.38
2023-05-22T12:16:38.248Z,100185.75
2023-05-22T12:19:43.044Z,100207.59
2023-05-22T12:22:47.275Z,100201.44
2023-05-22T12:26:01.837Z,100196.94
2023-05-22T12:29:05.933Z,100175.41
2023-05-22T12:32:14.737Z,100199.78
2023-05-22T12:35:19.908Z,100203.44
2023-05-22T12:38:24.322Z,100220.91
2023-05-22T12:41:28.282Z,100217.75
2023-05-22T12:44:32.346Z,100202.91
2023-05-22T12:47:36.461Z,100210.34
2023-05-22T12:50:42.271Z,100201.47
2023-05-22T12:53:46.256Z,100203.66
2023-05-22T12:56:50.714Z,100208.22
2023-05-22T12:59:54.643Z,100178.38
2023-05-22T13:03:01.442Z,100204.72
2023-05-22T13:06:05.740Z,100193.78
2023-05-22T13:09:09.780Z,100202.00
2023-05-22T13:12:13.813Z,100196.16
2023-05-22T13:15:18.681Z,100235.25
2023-05-22T13:18:23.130Z,100172.25
2023-05-22T13:21:27.727Z,100230.69
2023-05-22T13:24:33.452Z,100240.41
2023-05-22T13:27:37.485Z,100233.06
2023-05-22T13:30:41.954Z,100243.97
2023-05-22T13:33:46.134Z,100214.59
2023-05-22T13:36:50.315Z,100232.53
2023-05-22T13:39:54.474Z,100248.91
2023-05-22T13:42:58.586Z,100261.69
2023-05-22T13:46:02.580Z,100204.44
2023-05-22T13:49:06.674Z,100251.34
2023-05-22T13:52:10.912Z,100257.47
2023-05-22T13:55:15.531Z,100255.06
2023-05-22T13:58:19.649Z,100250.72
2023-05-22T14:01:24.884Z,100260.50
2023-05-22T14:04:29.247Z,100265.34
2023-05-22T14:07:33.879Z,100254.88
2023-05-22T14:10:39.631Z,100268.56
2023-05-22T14:13:43.726Z,100258.81
2023-05-22T14:16:47.843Z,100251.59
2023-05-22T14:19:52.001Z,100151.41
2023-05-22T14:22:58.159Z,100244.50
2023-05-22T14:26:02.600Z,100241.69
2023-05-22T14:29:06.482Z,100253.34
2023-05-22T14:32:11.004Z,100234.75
2023-05-22T14:35:17.252Z,100249.66
2023-05-22T14:38:21.692Z,100246.00
2023-05-22T14:41:25.878Z,100260.22
2023-05-22T14:44:33.006Z,100260.69
2023-05-22T14:47:37.622Z,100264.25
2023-05-22T14:50:41.617Z,100257.94
2023-05-22T14:53:45.975Z,100260.16
2023-05-22T14:56:50.162Z,100265.41
2023-05-22T14:59:53.949Z,100254.31
2023-05-22T15:02:58.028Z,100259.47
2023-05-22T15:06:01.876Z,100265.97
2023-05-22T15:09:06.355Z,100258.44
2023-05-22T15:12:10.800Z,100258.75
2023-05-22T15:15:14.976Z,100264.00
2023-05-22T15:18:22.700Z,100268.03
2023-05-22T15:21:26.826Z,100220.59
2023-05-22T15:24:31.419Z,100251.91
2023-05-22T15:27:36.432Z,100251.16
2023-05-22T15:30:42.710Z,100234.31
2023-05-22T15:33:47.511Z,100230.91
2023-05-22T15:36:52.192Z,100215.50
2023-05-22T15:39:56.456Z,100239.63
2023-05-22T15:43:04.681Z,100233.75
2023-05-22T15:46:09.288Z,100169.09
2023-05-22T15:49:13.384Z,100221.31
2023-05-22T15:52:17.584Z,100227.78
2023-05-22T15:55:21.840Z,100208.75
2023-05-22T15:58:25.687Z,100225.22
2023-05-22T16:01:30.329Z,100185.00
2023-05-22T16:04:34.492Z,100213.00
2023-05-22T16:07:39.102Z,100228.84
2023-05-22T16:10:46.184Z,100220.97
2023-05-22T16:13:51.091Z,100218.00
2023-05-22T16:16:55.159Z,100217.16
2023-05-22T16:19:59.342Z,100232.53
2023-05-22T16:23:03.437Z,100240.56
2023-05-22T16:26:07.463Z,100233.28
2023-05-22T16:29:11.566Z,100237.47
2023-05-22T16:32:15.457Z,100231.38
2023-05-22T16:35:20.315Z,100250.91
2023-05-22T16:38:24.765Z,100243.94
2023-05-22T16:41:29.013Z,100210.44
2023-05-22T16:44:33.150Z,100239.97
2023-05-22T16:47:49.637Z,100104.91
2023-05-22T16:51:12.467Z,100113.16
2023-05-22T16:54:32.092Z,100117.69
2023-05-22T16:57:47.207Z,100162.22
2023-05-22T17:01:11.157Z,100147.19
2023-05-22T17:04:40.243Z,100167.19
2023-05-22T17:07:58.432Z,100169.28
2023-05-22T17:11:35.677Z,100094.28
2023-05-22T17:14:44.682Z,100219.84
2023-05-22T17:17:52.050Z,100253.69
2023-05-22T17:21:07.402Z,100241.34
2023-05-22T17:24:15.429Z,100231.09
2023-05-22T17:27:31.988Z,100243.34
2023-05-22T17:30:40.605Z,100191.06
2023-05-22T17:33:46.097Z,100235.75
2023-05-22T17:36:50.364Z,100222.03
2023-05-22T17:39:54.589Z,100228.38
2023-05-22T17:43:01.170Z,100263.03
2023-05-22T17:46:08.647Z,100244.53
2023-05-22T17:49:12.759Z,100232.50
2023-05-22T17:52:22.130Z,100272.59
2023-05-22T17:55:32.834Z,100253.09
2023-05-22T17:58:37.028Z,100243.28
2023-05-22T18:01:54.963Z,100235.63
2023-05-22T18:05:05.051Z,100233.69
2023-05-22T18:08:09.666Z,100227.56
2023-05-22T18:11:16.355Z,100231.28
2023-05-22T18:14:20.690Z,100223.56
2023-05-22T18:17:34.884Z,100220.75
2023-05-22T18:20:39.585Z,100225.81
2023-05-22T18:23:45.933Z,100168.94
2023-05-22T18:26:58.086Z,100223.09
2023-05-22T18:30:02.321Z,100206.75
2023-05-22T18:33:14.862Z,100205.19
2023-05-22T18:36:25.523Z,100230.75
2023-05-22T18:39:33.201Z,100217.53
2023-05-22T18:42:44.176Z,100214.91
2023-05-22T18:45:53.427Z,100221.91
2023-05-22T18:49:03.420Z,100202.78
2023-05-22T18:52:14.402Z,100227.16
2023-05-22T18:55:19.446Z,100229.78
2023-05-22T18:58:24.749Z,100235.09
2023-05-22T19:01:28.704Z,100241.09
2023-05-22T19:04:32.826Z,100239.56
2023-05-22T19:07:36.932Z,100202.03
2023-05-22T19:10:42.249Z,100237.00
2023-05-22T19:13:46.676Z,100241.28
2023-05-22T19:16:50.810Z,100251.78
2023-05-22T19:19:55.509Z,100224.84
2023-05-22T19:23:55.822Z,100259.81
2023-05-22T19:28:13.799Z,100252.75
2023-05-22T19:32:32.229Z,100253.72
2023-05-22T19:36:50.036Z,100268.81
2023-05-22T19:41:08.761Z,100269.50
2023-05-22T19:45:26.811Z,100265.13
2023-05-22T19:49:45.316Z,100272.28
2023-05-22T19:54:03.976Z,100275.63
2023-05-22T20:03:14.058Z,100272.34
2023-05-22T20:12:51.642Z,100278.25
2023-05-22T20:17:09.501Z,100287.88
2023-05-22T20:21:27.880Z,100283.56
2023-05-22T20:25:27.488Z,100285.16
2023-05-22T20:29:47.215Z,100288.38
2023-05-22T20:34:04.702Z,100289.28
2023-05-22T20:38:23.086Z,100280.38
2023-05-22T20:42:43.041Z,100278.25
2023-05-22T20:47:01.229Z,100278.44
2023-05-22T20:51:20.560Z,100276.75
2023-05-22T20:55:41.017Z,100275.50
2023-05-22T21:03:47.211Z,100276.75
2023-05-22T21:08:05.249Z,100277.34
2023-05-22T21:12:27.987Z,100272.78
2023-05-22T21:16:51.718Z,100274.16
2023-05-22T21:21:09.989Z,100260.66
2023-05-22T21:25:28.024Z,100270.81
2023-05-22T21:29:51.809Z,100265.97
2023-05-22T21:38:18.690Z,100266.69
2023-05-22T21:42:45.946Z,100254.91
2023-05-22T21:47:04.915Z,100258.63
2023-05-22T21:51:22.921Z,100254.59
2023-05-22T21:55:41.055Z,100252.69
2023-05-22T21:59:59.058Z,100252.22
2023-05-22T22:04:17.878Z,100251.03
2023-05-22T22:08:35.802Z,100247.72
2023-05-22T22:12:54.619Z,100259.75
2023-05-22T22:17:12.929Z,100248.94
2023-05-22T22:21:30.484Z,100256.84
2023-05-22T22:29:32.737Z,100272.81
2023-05-22T22:33:51.366Z,100264.66
2023-05-22T22:38:10.157Z,100267.09
2023-05-22T22:42:28.137Z,100268.09
2023-05-22T22:46:49.146Z,100264.47
2023-05-22T22:51:07.195Z,100269.72
2023-05-22T22:55:25.175Z,100275.13
2023-05-22T22:59:43.153Z,100266.69
2023-05-22T23:03:12.300Z,100259.19
2023-05-22T23:06:20.286Z,100245.97
2023-05-22T23:09:26.794Z,100271.78
2023-05-22T23:12:33.724Z,100274.47
2023-05-22T23:15:37.803Z,100261.38
2023-05-22T23:18:41.867Z,100234.00
2023-05-22T23:21:45.795Z,100260.75
2023-05-22T23:24:50.725Z,100259.13
2023-05-22T23:27:54.965Z,100237.50
2023-05-22T23:30:58.971Z,100244.28
2023-05-22T23:34:02.979Z,100239.31
2023-05-22T23:37:07.049Z,100253.69
2023-05-22T23:40:11.299Z,100245.56
2023-05-22T23:43:15.332Z,100214.03
2023-05-22T23:46:21.928Z,100240.91
2023-05-22T23:49:26.004Z,100241.84
2023-05-22T23:52:30.128Z,100254.72
2023-05-22T23:55:34.144Z,100231.31
2023-05-22T23:58:39.347Z,100249.03
